createdAt,value
2023-02-12T00:04:04.554Z,15.90
2023-02-12T00:07:06.588Z,17.30
2023-02-12T00:10:09.114Z,17.90
2023-02-12T00:13:11.900Z,18.00
2023-02-12T00:16:17.315Z,19.10
2023-02-12T00:19:19.351Z,18.20
2023-02-12T00:22:21.291Z,17.50
2023-02-12T00:25:23.165Z,19.30
2023-02-12T00:28:25.864Z,17.60
2023-02-12T00:31:30.265Z,18.70
2023-02-12T00:34:32.223Z,19.80
2023-02-12T00:37:34.075Z,21.20
2023-02-12T00:40:35.958Z,18.50
2023-02-12T00:43:38.051Z,19.70
2023-02-12T00:46:40.379Z,18.30
2023-02-12T00:52:44.173Z,17.20
2023-02-12T00:55:46.065Z,20.40
2023-02-12T00:58:47.897Z,18.10
2023-02-12T01:01:51.732Z,22.70
2023-02-12T01:04:53.855Z,19.50
2023-02-12T01:07:59.309Z,23.00
2023-02-12T01:11:03.518Z,24.40
2023-02-12T01:14:06.358Z,21.70
2023-02-12T01:17:09.068Z,24.60
2023-02-12T01:20:16.688Z,21.50
2023-02-12T01:23:18.564Z,20.10
2023-02-12T01:26:21.427Z,25.20
2023-02-12T01:29:23.270Z,23.10
2023-02-12T01:32:25.203Z,22.60
2023-02-12T01:35:27.565Z,24.30
2023-02-12T01:38:30.009Z,27.30
2023-02-12T01:41:35.674Z,23.90
2023-02-12T01:44:44.133Z,25.70
2023-02-12T01:47:46.303Z,26.30
2023-02-12T01:50:50.536Z,21.90
2023-02-12T01:53:55.123Z,31.60
2023-02-12T01:56:58.483Z,25.50
2023-02-12T02:00:02.872Z,28.50
2023-02-12T02:03:05.409Z,27.70
2023-02-12T02:09:18.829Z,23.90
2023-02-12T02:12:39.424Z,27.10
2023-02-12T02:15:47.702Z,31.60
2023-02-12T02:19:04.363Z,30.50
2023-02-12T02:22:26.010Z,31.20
2023-02-12T02:25:49.599Z,22.20
2023-02-12T02:29:28.989Z,27.70
2023-02-12T02:32:39.186Z,30.40
2023-02-12T02:35:52.338Z,27.60
2023-02-12T02:39:35.732Z,24.60
2023-02-12T02:42:46.900Z,24.90
2023-02-12T02:45:55.277Z,27.90
2023-02-12T02:49:04.819Z,22.60
2023-02-12T02:52:13.810Z,25.90
2023-02-12T02:55:19.672Z,24.10
2023-02-12T02:58:43.839Z,24.70
2023-02-12T03:01:55.789Z,24.50
2023-02-12T03:05:44.728Z,23.00
2023-02-12T03:08:54.444Z,26.40
2023-02-12T03:12:02.541Z,24.50
2023-02-12T03:15:13.324Z,25.10
2023-02-12T03:19:01.754Z,25.50
2023-02-12T03:22:11.909Z,26.60
2023-02-12T03:25:17.556Z,29.10
2023-02-12T03:28:25.429Z,25.80
2023-02-12T03:31:42.417Z,23.30
2023-02-12T03:34:57.651Z,25.60
2023-02-12T03:38:07.608Z,23.10
2023-02-12T03:41:12.701Z,27.80
2023-02-12T03:44:43.371Z,32.40
2023-02-12T03:48:23.980Z,30.30
2023-02-12T03:51:37.334Z,28.60
2023-02-12T03:54:39.459Z,28.00
2023-02-12T03:57:47.082Z,26.40
2023-02-12T04:00:50.466Z,28.10
2023-02-12T04:03:52.461Z,28.70
2023-02-12T04:06:55.276Z,28.90
2023-02-12T04:09:57.160Z,26.40
2023-02-12T04:13:18.400Z,29.90
2023-02-12T04:16:27.216Z,26.10
2023-02-12T04:19:47.132Z,26.50
2023-02-12T04:23:04.235Z,23.80
2023-02-12T04:26:34.271Z,31.80
2023-02-12T04:29:47.577Z,27.30
2023-02-12T04:33:07.667Z,33.70
2023-02-12T04:36:17.329Z,33.20
2023-02-12T04:39:24.629Z,29.60
2023-02-12T04:42:26.545Z,31.40
2023-02-12T04:45:32.504Z,31.40
2023-02-12T04:48:37.154Z,29.60
2023-02-12T04:51:39.044Z,27.80
2023-02-12T04:54:40.894Z,31.80
2023-02-12T04:57:42.783Z,26.60
2023-02-12T05:00:44.747Z,29.70
2023-02-12T05:03:46.666Z,27.70
2023-02-12T05:06:48.489Z,25.60
2023-02-12T05:09:50.380Z,29.70
2023-02-12T05:12:53.756Z,28.30
2023-02-12T05:15:55.975Z,27.00
2023-02-12T05:18:58.104Z,35.70
2023-02-12T05:22:00.256Z,23.90
2023-02-12T05:25:02.848Z,35.30
2023-02-12T05:28:04.779Z,29.60
2023-02-12T05:31:10.442Z,34.80
2023-02-12T05:34:13.098Z,31.20
2023-02-12T05:37:14.976Z,28.20
2023-02-12T05:40:17.098Z,31.40
2023-02-12T05:43:18.967Z,29.60
2023-02-12T05:46:21.813Z,31.60
2023-02-12T05:49:23.883Z,26.00
2023-02-12T05:52:25.764Z,30.10
2023-02-12T05:55:27.733Z,27.30
2023-02-12T05:58:29.814Z,25.30
2023-02-12T06:01:34.209Z,27.70
2023-02-12T06:04:36.127Z,29.80
2023-02-12T06:07:37.966Z,27.80
2023-02-12T06:10:39.785Z,27.40
2023-02-12T06:13:41.840Z,26.70
2023-02-12T06:16:46.294Z,21.60
2023-02-12T06:19:48.259Z,20.80
2023-02-12T06:22:50.045Z,21.50
2023-02-12T06:25:56.594Z,21.10
2023-02-12T06:28:58.699Z,20.60
2023-02-12T06:32:01.057Z,18.50
2023-02-12T06:35:03.189Z,16.90
2023-02-12T06:38:05.274Z,19.60
2023-02-12T06:41:07.269Z,15.80
2023-02-12T06:44:11.789Z,13.90
2023-02-12T06:47:13.821Z,14.10
2023-02-12T06:50:16.183Z,14.90
2023-02-12T06:53:18.049Z,17.30
2023-02-12T06:56:21.118Z,16.50
2023-02-12T06:59:22.955Z,21.10
2023-02-12T07:02:24.814Z,13.80
2023-02-12T07:05:26.780Z,16.80
2023-02-12T07:08:28.581Z,15.80
2023-02-12T07:11:36.096Z,13.60
2023-02-12T07:14:39.516Z,14.90
2023-02-12T07:17:42.265Z,13.30
2023-02-12T07:20:44.208Z,14.90
2023-02-12T07:23:51.103Z,17.00
2023-02-12T07:26:53.742Z,15.40
2023-02-12T07:29:55.646Z,13.60
2023-02-12T07:32:57.564Z,15.90
2023-02-12T07:36:01.199Z,11.70
2023-02-12T07:39:03.707Z,12.20
2023-02-12T07:42:07.925Z,11.50
2023-02-12T07:45:10.142Z,10.40
2023-02-12T07:51:18.651Z,11.80
2023-02-12T07:54:20.577Z,18.90
2023-02-12T07:57:22.478Z,13.40
2023-02-12T08:00:24.467Z,39.20
2023-02-12T08:03:28.579Z,30.60
2023-02-12T08:06:32.587Z,23.70
2023-02-12T08:09:34.656Z,15.60
2023-02-12T08:12:36.602Z,21.70
2023-02-12T08:15:38.539Z,14.00
2023-02-12T08:18:41.165Z,8.80
2023-02-12T08:21:43.348Z,9.00
2023-02-12T08:24:45.177Z,11.60
2023-02-12T08:27:47.073Z,10.40
2023-02-12T08:30:49.044Z,12.50
2023-02-12T08:33:52.884Z,9.00
2023-02-12T08:36:56.101Z,13.50
2023-02-12T08:39:58.139Z,13.40
2023-02-12T08:43:00.101Z,17.50
2023-02-12T08:49:13.805Z,19.50
2023-02-12T08:52:15.746Z,14.90
2023-02-12T08:55:17.604Z,17.50
2023-02-12T08:58:19.620Z,20.30
2023-02-12T09:01:24.224Z,17.50
2023-02-12T09:04:28.225Z,16.10
2023-02-12T09:07:30.200Z,12.70
2023-02-12T09:10:32.555Z,8.30
2023-02-12T09:13:34.978Z,6.30
2023-02-12T09:16:39.668Z,7.80
2023-02-12T09:19:41.673Z,7.40
2023-02-12T09:22:43.638Z,7.50
2023-02-12T09:25:46.426Z,9.10
2023-02-12T09:28:49.776Z,6.50
2023-02-12T09:31:51.826Z,9.50
2023-02-12T09:34:53.710Z,12.20
2023-02-12T09:37:55.522Z,9.80
2023-02-12T09:41:28.784Z,7.60
2023-02-12T09:44:42.945Z,7.50
2023-02-12T09:48:06.075Z,7.30
2023-02-12T09:51:09.440Z,4.90
2023-02-12T09:54:18.105Z,6.40
2023-02-12T09:57:31.114Z,6.70
2023-02-12T10:00:33.134Z,10.50
2023-02-12T10:03:35.072Z,6.80
2023-02-12T10:06:46.135Z,8.40
2023-02-12T10:10:25.603Z,8.90
2023-02-12T10:13:33.479Z,8.70
2023-02-12T10:17:05.416Z,7.00
2023-02-12T10:20:07.280Z,5.70
2023-02-12T10:23:18.093Z,10.00
2023-02-12T10:26:47.132Z,7.70
2023-02-12T10:29:50.048Z,6.10
2023-02-12T10:33:02.854Z,6.10
2023-02-12T10:36:22.199Z,8.20
2023-02-12T10:39:37.436Z,10.00
2023-02-12T10:42:43.528Z,6.00
2023-02-12T10:45:45.808Z,11.00
2023-02-12T10:48:53.484Z,8.90
2023-02-12T10:52:14.209Z,12.00
2023-02-12T10:55:26.801Z,10.20
2023-02-12T10:58:29.494Z,7.90
2023-02-12T11:01:37.981Z,5.10
2023-02-12T11:04:39.881Z,7.70
2023-02-12T11:07:51.137Z,4.60
2023-02-12T11:10:53.019Z,5.50
2023-02-12T11:14:05.546Z,5.50
2023-02-12T11:17:25.737Z,7.70
2023-02-12T11:20:40.619Z,6.70
2023-02-12T11:23:46.708Z,8.10
2023-02-12T11:26:48.861Z,9.10
2023-02-12T11:30:12.977Z,6.70
2023-02-12T11:33:17.328Z,5.60
2023-02-12T11:36:26.981Z,4.90
2023-02-12T11:39:34.087Z,7.30
2023-02-12T11:42:37.980Z,8.60
2023-02-12T11:45:50.399Z,13.30
2023-02-12T11:48:54.926Z,9.80
2023-02-12T11:51:59.884Z,11.20
2023-02-12T11:55:06.504Z,10.80
2023-02-12T11:58:17.478Z,14.70
2023-02-12T12:01:27.863Z,10.60
2023-02-12T12:04:33.461Z,7.50
2023-02-12T12:07:38.652Z,10.30
2023-02-12T12:10:55.319Z,15.10
2023-02-12T12:14:25.927Z,8.80
2023-02-12T12:18:16.106Z,7.10
2023-02-12T12:21:39.003Z,10.10
2023-02-12T12:24:51.938Z,12.70
2023-02-12T12:28:26.108Z,9.60
2023-02-12T12:31:37.352Z,14.40
2023-02-12T12:34:40.075Z,12.30
2023-02-12T12:37:58.468Z,14.60
2023-02-12T12:41:19.354Z,17.50
2023-02-12T12:45:05.424Z,14.00
2023-02-12T12:48:49.043Z,21.00
2023-02-12T12:52:10.566Z,12.10
2023-02-12T12:55:40.173Z,14.70
2023-02-12T12:58:44.978Z,10.00
2023-02-12T13:02:05.299Z,7.60
2023-02-12T13:05:18.923Z,7.50
2023-02-12T13:08:39.099Z,7.80
2023-02-12T13:11:52.689Z,10.30
2023-02-12T13:15:00.121Z,19.60
2023-02-12T13:18:07.654Z,10.30
2023-02-12T13:21:20.920Z,10.00
2023-02-12T13:24:37.938Z,8.70
2023-02-12T13:27:40.331Z,10.10
2023-02-12T13:30:47.893Z,8.50
2023-02-12T13:33:57.580Z,16.00
2023-02-12T13:37:00.982Z,14.20
2023-02-12T13:40:06.295Z,12.00
2023-02-12T13:43:39.917Z,15.50
2023-02-12T13:47:12.389Z,12.30
2023-02-12T14:37:39.468Z,13.60
2023-02-12T14:40:47.237Z,13.60
2023-02-12T14:44:03.192Z,14.40
2023-02-12T14:47:34.433Z,13.50
2023-02-12T14:50:43.606Z,19.90
2023-02-12T14:53:48.670Z,20.20
2023-02-12T14:56:52.875Z,20.20
2023-02-12T15:00:16.217Z,15.70
2023-02-12T15:03:22.332Z,17.50
2023-02-12T15:06:37.952Z,21.30
2023-02-12T15:10:10.151Z,20.80
2023-02-12T15:13:20.646Z,24.40
2023-02-12T15:16:36.133Z,21.40
2023-02-12T15:20:06.188Z,19.90
2023-02-12T15:23:36.772Z,22.60
2023-02-12T15:26:45.037Z,18.80
2023-02-12T15:29:53.340Z,22.50
2023-02-12T15:32:59.776Z,19.20
2023-02-12T15:36:04.253Z,18.20
2023-02-12T15:39:09.420Z,15.50
2023-02-12T15:42:35.398Z,13.30
2023-02-12T15:45:53.060Z,12.90
2023-02-12T15:48:56.658Z,14.20
2023-02-12T15:52:04.297Z,15.60
2023-02-12T15:55:16.789Z,17.40
2023-02-12T15:58:25.867Z,18.20
2023-02-12T16:01:35.250Z,20.60
2023-02-12T16:04:42.073Z,22.90
2023-02-12T16:07:46.789Z,23.50
2023-02-12T16:10:53.556Z,20.00
2023-02-12T16:14:00.978Z,19.70
2023-02-12T16:17:04.479Z,18.20
2023-02-12T16:20:19.739Z,19.10
2023-02-12T16:23:23.884Z,22.30
2023-02-12T16:26:28.406Z,25.50
2023-02-12T16:29:34.526Z,31.50
2023-02-12T16:32:41.721Z,30.10
2023-02-12T16:35:45.095Z,30.80
2023-02-12T16:39:11.044Z,27.40
2023-02-12T16:42:17.144Z,32.70
2023-02-12T16:45:27.690Z,29.50
2023-02-12T16:48:37.023Z,31.80
2023-02-12T16:51:40.276Z,34.10
2023-02-12T16:54:43.571Z,30.80
2023-02-12T16:57:46.755Z,34.10
2023-02-12T17:00:53.149Z,36.50
2023-02-12T17:03:58.265Z,34.10
2023-02-12T17:07:02.011Z,32.90
2023-02-12T17:10:05.903Z,37.70
2023-02-12T17:13:10.403Z,34.70
2023-02-12T17:16:29.514Z,40.00
2023-02-12T17:19:35.295Z,42.30
2023-02-12T17:22:38.904Z,45.10
2023-02-12T17:25:42.222Z,46.80
2023-02-12T17:28:45.564Z,54.90
2023-02-12T17:31:49.360Z,77.30
2023-02-12T17:34:53.142Z,85.40
2023-02-12T17:37:56.687Z,89.60
2023-02-12T17:41:00.081Z,98.10
2023-02-12T17:44:03.783Z,108.70
2023-02-12T17:47:07.404Z,102.70
2023-02-12T17:50:14.250Z,107.60
2023-02-12T17:53:17.637Z,114.40
2023-02-12T17:56:23.123Z,120.50
2023-02-12T17:59:26.581Z,120.50
2023-02-12T18:02:29.924Z,154.20
2023-02-12T18:05:33.211Z,184.10
2023-02-12T18:08:36.658Z,197.60
2023-02-12T18:11:42.252Z,183.40
2023-02-12T18:14:45.614Z,182.30
2023-02-12T18:17:49.045Z,167.40
2023-02-12T18:20:52.416Z,160.00
2023-02-12T18:23:55.816Z,156.80
2023-02-12T18:26:59.205Z,145.00
2023-02-12T18:30:02.946Z,132.70
2023-02-12T18:33:06.460Z,123.20
2023-02-12T18:36:16.129Z,117.60
2023-02-12T18:39:19.574Z,112.90
2023-02-12T18:42:23.033Z,103.00
2023-02-12T18:45:26.415Z,105.30
2023-02-12T18:48:29.785Z,97.40
2023-02-12T18:51:38.147Z,85.40
2023-02-12T18:54:41.667Z,82.20
2023-02-12T18:57:45.018Z,86.30
2023-02-12T19:00:48.393Z,78.30
2023-02-12T19:03:59.037Z,77.30
2023-02-12T19:07:02.506Z,73.50
2023-02-12T19:10:06.749Z,87.00
2023-02-12T19:13:11.265Z,88.00
2023-02-12T19:16:17.337Z,98.70
2023-02-12T19:19:21.456Z,101.00
2023-02-12T19:22:24.879Z,93.40
2023-02-12T19:25:28.106Z,93.70
2023-02-12T19:28:31.430Z,93.30
2023-02-12T19:31:37.786Z,96.20
2023-02-12T19:34:41.075Z,93.20
2023-02-12T19:37:44.764Z,97.50
2023-02-12T19:40:47.957Z,110.10
2023-02-12T19:43:58.198Z,137.90
2023-02-12T19:47:01.719Z,142.60
2023-02-12T19:50:05.671Z,163.30
2023-02-12T19:53:08.916Z,181.30
2023-02-12T19:56:12.783Z,170.10
2023-02-12T19:59:18.356Z,160.50
2023-02-12T20:02:21.694Z,153.70
2023-02-12T20:05:25.020Z,144.50
2023-02-12T20:08:28.463Z,138.90
2023-02-12T20:11:33.355Z,131.20
2023-02-12T20:14:36.690Z,121.30
2023-02-12T20:17:40.046Z,125.70
2023-02-12T20:20:43.514Z,131.20
2023-02-12T20:23:47.200Z,118.60
2023-02-12T20:26:51.276Z,126.30
2023-02-12T20:29:54.661Z,118.00
2023-02-12T20:32:57.984Z,111.40
2023-02-12T20:36:01.494Z,115.90
2023-02-12T20:39:07.378Z,116.90
2023-02-12T20:42:11.997Z,117.40
2023-02-12T20:45:15.402Z,112.10
2023-02-12T20:48:21.059Z,121.50
2023-02-12T20:51:26.718Z,106.80
2023-02-12T20:54:30.174Z,107.70
2023-02-12T20:57:34.812Z,104.40
2023-02-12T21:00:38.190Z,100.10
2023-02-12T21:03:42.092Z,91.40
2023-02-12T21:06:46.072Z,94.40
2023-02-12T21:09:50.269Z,95.40
2023-02-12T21:12:53.652Z,88.00
2023-02-12T21:16:08.234Z,85.50
2023-02-12T21:19:14.044Z,79.80
2023-02-12T21:22:17.853Z,77.30
2023-02-12T21:25:21.198Z,80.60
2023-02-12T21:28:24.584Z,84.80
2023-02-12T21:31:36.413Z,85.10
2023-02-12T21:34:39.816Z,87.80
2023-02-12T21:37:43.160Z,79.10
2023-02-12T21:40:46.578Z,74.70
2023-02-12T21:43:52.829Z,80.00
2023-02-12T21:46:57.664Z,71.90
2023-02-12T21:50:01.045Z,68.50
2023-02-12T21:53:04.517Z,71.00
2023-02-12T21:56:07.859Z,69.80
2023-02-12T21:59:12.283Z,72.00
2023-02-12T22:02:15.619Z,79.40
2023-02-12T22:05:18.876Z,79.60
2023-02-12T22:08:24.232Z,73.00
2023-02-12T22:11:28.144Z,70.90
2023-02-12T22:14:31.622Z,77.40
2023-02-12T22:17:35.121Z,73.20
2023-02-12T22:20:38.677Z,66.60
2023-02-12T22:23:43.536Z,69.00
2023-02-12T22:26:46.977Z,66.10
2023-02-12T22:29:50.660Z,65.40
2023-02-12T22:32:53.893Z,63.00
2023-02-12T22:36:03.516Z,62.90
2023-02-12T22:39:08.185Z,75.90
2023-02-12T22:42:11.656Z,62.70
2023-02-12T22:45:15.130Z,59.30
2023-02-12T22:48:18.399Z,66.60
2023-02-12T22:51:27.586Z,62.10
2023-02-12T22:54:31.073Z,63.80
2023-02-12T22:57:34.415Z,63.20
2023-02-12T23:00:38.513Z,64.40
2023-02-12T23:03:42.594Z,68.10
2023-02-12T23:06:46.224Z,63.70
2023-02-12T23:09:49.533Z,68.30
2023-02-12T23:12:53.043Z,75.60
2023-02-12T23:15:57.133Z,82.20
2023-02-12T23:19:01.650Z,81.50
2023-02-12T23:22:05.023Z,69.60
2023-02-12T23:25:08.797Z,72.50
2023-02-12T23:28:12.148Z,78.10
2023-02-12T23:31:15.667Z,74.40
2023-02-12T23:34:19.581Z,69.40
2023-02-12T23:37:23.821Z,64.20
2023-02-12T23:40:27.337Z,68.80
2023-02-12T23:43:30.648Z,67.30
2023-02-12T23:46:34.121Z,65.40
2023-02-12T23:49:37.996Z,61.80
2023-02-12T23:52:41.281Z,62.70
2023-02-12T23:55:45.320Z,70.00
2023-02-12T23:58:48.610Z,69.30
